Time;durP1;ratioP1;P1;durP2;ratioP2;P2;SDS_P1;SDS_P2;PMS_P1;PMS_P2;Temp;Humidity;BMP_temperature;BMP_pressure;BME280_temperature;BME280_humidity;BME280_pressure;Samples;Min_cycle;Max_cycle;Signal;HPM_P1;HPM_P2
2022/11/14 00:02:15;;;;;;;54.60;49.00;;;;;;;4.84;99.49;98962.08;105317;1320;22298;-91
2022/11/14 00:05:03;;;;;;;86.50;55.30;;;;;;;4.82;99.47;98959.73;104905;1333;22250;-91
2022/11/14 00:07:49;;;;;;;105.90;58.40;;;;;;;4.80;99.57;98955.95;104932;1327;22183;-89
2022/11/14 00:10:36;;;;;;;88.60;54.50;;;;;;;4.75;99.51;98953.77;104768;1331;22205;-90
2022/11/14 00:13:22;;;;;;;62.60;53.20;;;;;;;4.75;99.37;98955.58;104918;1333;22785;-89
2022/11/14 00:16:09;;;;;;;69.70;53.70;;;;;;;4.75;99.56;98952.27;104891;1333;22117;-91
2022/11/14 00:18:55;;;;;;;65.90;54.20;;;;;;;4.77;99.50;98941.95;104882;1327;22285;-90
2022/11/14 00:21:41;;;;;;;72.00;55.90;;;;;;;4.83;99.58;98946.57;104895;1327;22897;-89
2022/11/14 00:24:27;;;;;;;96.60;57.00;;;;;;;4.82;99.44;98950.82;104913;1327;22079;-91
2022/11/14 00:27:14;;;;;;;74.10;55.10;;;;;;;4.78;99.48;98951.64;104907;1327;22971;-91
2022/11/14 00:30:01;;;;;;;76.30;54.60;;;;;;;4.79;99.83;98955.97;105010;1307;22959;-89
2022/11/14 00:32:47;;;;;;;64.30;51.30;;;;;;;4.80;99.75;98959.00;105330;1319;22246;-89
2022/11/14 00:35:34;;;;;;;78.40;55.80;;;;;;;4.80;99.36;98960.81;104892;1331;23043;-92
2022/11/14 00:38:21;;;;;;;71.20;53.60;;;;;;;4.80;99.67;98962.85;105321;1311;22736;-91
2022/11/14 00:41:08;;;;;;;80.90;55.60;;;;;;;4.74;99.87;98964.37;105287;1323;22142;-90
2022/11/14 00:43:54;;;;;;;64.10;52.90;;;;;;;4.68;99.81;98965.09;104918;1327;22141;-92
2022/11/14 00:46:41;;;;;;;85.80;54.70;;;;;;;4.67;99.85;98962.35;105328;1319;22203;-89
2022/11/14 00:49:27;;;;;;;63.70;56.40;;;;;;;4.70;99.80;98955.63;105009;1329;22236;-90
2022/11/14 00:52:13;;;;;;;71.20;56.70;;;;;;;4.74;99.88;98957.90;105013;1320;22330;-91
2022/11/14 00:54:59;;;;;;;87.90;57.30;;;;;;;4.77;99.65;98959.16;105052;1321;22130;-90
2022/11/14 00:57:46;;;;;;;71.80;53.10;;;;;;;4.79;99.83;98955.98;104933;1326;22222;-90
2022/11/14 01:00:34;;;;;;;102.60;55.60;;;;;;;4.72;99.90;98949.11;105037;1320;22091;-90
2022/11/14 01:03:21;;;;;;;72.10;51.20;;;;;;;4.69;99.99;98950.54;104810;1327;22197;-86
2022/11/14 01:06:10;;;;;;;75.70;53.60;;;;;;;4.66;100.00;98945.83;104928;1327;22221;-90
2022/11/14 01:08:56;;;;;;;60.80;52.50;;;;;;;4.67;99.95;98945.89;104959;1320;22673;-89
2022/11/14 01:11:42;;;;;;;58.20;50.70;;;;;;;4.71;99.99;98947.65;105328;1314;22887;-89
2022/11/14 01:14:28;;;;;;;73.70;52.10;;;;;;;4.73;99.88;98946.10;104886;1325;22210;-89
2022/11/14 01:17:15;;;;;;;95.90;51.40;;;;;;;4.70;99.97;98940.90;104913;1327;22307;-92
2022/11/14 01:20:01;;;;;;;60.90;52.10;;;;;;;4.63;99.98;98939.15;104785;1322;22163;-90
2022/11/14 01:22:47;;;;;;;82.00;50.90;;;;;;;4.61;100.00;98933.02;104799;1327;22229;-90
2022/11/14 01:25:36;;;;;;;70.20;54.50;;;;;;;4.64;99.95;98930.66;105111;1305;22207;-89
2022/11/14 01:28:22;;;;;;;71.60;51.70;;;;;;;4.67;99.99;98924.45;105342;1319;22150;-89
2022/11/14 01:31:20;;;;;;;64.20;52.90;;;;;;;4.67;99.94;98918.66;104880;1327;22099;-90
2022/11/14 01:34:06;;;;;;;87.50;53.20;;;;;;;4.68;100.00;98915.85;105295;1320;22137;-90
2022/11/14 01:36:53;;;;;;;139.30;52.80;;;;;;;4.67;100.00;98915.20;104786;1327;22282;-88
2022/11/14 01:39:39;;;;;;;90.20;54.00;;;;;;;4.66;100.00;98910.23;105062;1320;22107;-88
2022/11/14 01:42:26;;;;;;;62.90;52.20;;;;;;;4.67;100.00;98906.66;105392;1320;22178;-91
2022/11/14 01:45:50;;;;;;;60.70;51.30;;;;;;;4.69;100.00;98910.87;105107;1319;22256;-92
2022/11/14 01:49:07;;;;;;;64.30;49.20;;;;;;;4.69;100.00;98906.64;104892;1321;22218;-90
2022/11/14 01:52:07;;;;;;;100.30;51.80;;;;;;;4.67;100.00;98907.41;104890;1327;22931;-91
2022/11/14 01:54:58;;;;;;;96.50;53.60;;;;;;;4.64;100.00;98904.46;105118;1320;22146;-91
2022/11/14 01:57:46;;;;;;;60.60;50.80;;;;;;;4.58;100.00;98897.02;105320;1313;22266;-88
2022/11/14 02:00:33;;;;;;;58.00;50.50;;;;;;;4.63;100.00;98898.81;104892;1327;23065;-91
2022/11/14 02:03:19;;;;;;;55.20;49.40;;;;;;;4.64;100.00;98903.23;105329;1320;22148;-89
2022/11/14 02:06:08;;;;;;;54.70;48.80;;;;;;;4.66;100.00;98898.36;104799;1327;22190;-89
2022/11/14 02:08:58;;;;;;;92.90;49.60;;;;;;;4.63;100.00;98893.16;105067;1317;22193;-88
2022/11/14 02:11:45;;;;;;;80.40;53.70;;;;;;;4.56;100.00;98890.90;105364;1319;22188;-87
2022/11/14 02:14:34;;;;;;;53.30;47.70;;;;;;;4.53;100.00;98886.58;104917;1326;22249;-89
2022/11/14 02:17:22;;;;;;;70.60;47.40;;;;;;;4.50;100.00;98888.48;105240;1312;22271;-89
2022/11/14 02:20:28;;;;;;;56.10;47.90;;;;;;;4.47;100.00;98889.23;105352;1320;22157;-89
2022/11/14 02:23:28;;;;;;;55.80;49.50;;;;;;;4.47;100.00;98886.69;104913;1327;22233;-88
2022/11/14 02:26:19;;;;;;;58.20;46.50;;;;;;;4.47;100.00;98894.35;105066;1314;22750;-92
2022/11/14 02:29:07;;;;;;;68.00;48.60;;;;;;;4.47;100.00;98889.76;105153;1320;22251;-91
2022/11/14 02:31:54;;;;;;;75.80;50.60;;;;;;;4.45;100.00;98881.38;104754;1327;22228;-92
2022/11/14 02:34:40;;;;;;;63.70;47.60;;;;;;;4.41;100.00;98881.88;105120;1320;22193;-91
2022/11/14 02:37:27;;;;;;;56.70;50.50;;;;;;;4.40;100.00;98873.85;105203;1320;22137;-92
2022/11/14 02:40:13;;;;;;;58.80;49.00;;;;;;;4.43;100.00;98873.52;104926;1320;22170;-92
2022/11/14 02:43:00;;;;;;;62.00;51.00;;;;;;;4.48;100.00;98865.86;104913;1327;22922;-91
2022/11/14 02:45:46;;;;;;;59.00;49.90;;;;;;;4.51;100.00;98869.39;105349;1319;22096;-92
2022/11/14 02:48:32;;;;;;;79.60;51.90;;;;;;;4.51;100.00;98867.63;104903;1327;22257;-90
2022/11/14 02:51:19;;;;;;;85.10;50.10;;;;;;;4.51;100.00;98865.17;104834;1327;22262;-92
2022/11/14 02:54:05;;;;;;;70.30;47.50;;;;;;;4.46;100.00;98866.30;105348;1319;22247;-90
2022/11/14 02:56:52;;;;;;;52.10;46.80;;;;;;;4.44;100.00;98864.85;104819;1327;22093;-92
2022/11/14 02:59:38;;;;;;;47.50;42.80;;;;;;;4.42;100.00;98864.19;104908;1327;22245;-92
2022/11/14 03:02:25;;;;;;;55.90;42.60;;;;;;;4.38;100.00;98857.33;104912;1327;22189;-88
2022/11/14 03:05:11;;;;;;;57.40;45.80;;;;;;;4.39;100.00;98854.73;104827;1327;22202;-93
2022/11/14 03:07:57;;;;;;;67.10;47.10;;;;;;;4.40;100.00;98849.79;104849;1327;22128;-90
2022/11/14 03:10:44;;;;;;;63.10;44.10;;;;;;;4.38;100.00;98845.68;105365;1305;22073;-93
2022/11/14 03:13:30;;;;;;;46.70;41.40;;;;;;;4.39;100.00;98844.63;104797;1327;22283;-89
2022/11/14 03:16:17;;;;;;;48.80;43.20;;;;;;;4.34;100.00;98846.79;104855;1327;22088;-90
2022/11/14 03:19:03;;;;;;;47.70;42.10;;;;;;;4.29;100.00;98846.66;104912;1320;22175;-90
2022/11/14 03:21:50;;;;;;;43.20;38.80;;;;;;;4.25;100.00;98840.45;104928;1326;22861;-89
2022/11/14 03:24:36;;;;;;;44.50;39.70;;;;;;;4.23;100.00;98836.61;104816;1326;22226;-90
2022/11/14 03:27:22;;;;;;;65.40;38.50;;;;;;;4.20;100.00;98841.14;104883;1327;22224;-92
2022/11/14 03:30:09;;;;;;;55.80;41.10;;;;;;;4.13;100.00;98846.92;104858;1327;22239;-90
2022/11/14 03:32:56;;;;;;;44.30;39.60;;;;;;;4.07;100.00;98851.05;104908;1327;22269;-90
2022/11/14 03:35:43;;;;;;;41.20;36.80;;;;;;;4.06;100.00;98853.02;105044;1320;22182;-90
2022/11/14 03:38:30;;;;;;;44.70;38.50;;;;;;;4.04;100.00;98850.41;105331;1311;22582;-91
2022/11/14 03:41:16;;;;;;;41.00;36.20;;;;;;;4.04;100.00;98850.40;104811;1327;22857;-91
2022/11/14 03:44:03;;;;;;;36.80;32.70;;;;;;;4.05;100.00;98852.77;105324;1319;22835;-91
2022/11/14 03:46:50;;;;;;;46.30;33.60;;;;;;;4.04;100.00;98850.61;105298;1320;22090;-90
2022/11/14 03:49:37;;;;;;;37.20;30.90;;;;;;;4.01;100.00;98844.35;104884;1327;22936;-90
2022/11/14 03:52:24;;;;;;;40.20;30.90;;;;;;;3.97;100.00;98844.64;104875;1327;22245;-90
2022/11/14 03:55:11;;;;;;;34.10;30.10;;;;;;;3.97;100.00;98840.61;105308;1314;22792;-90
2022/11/14 03:57:57;;;;;;;31.60;28.40;;;;;;;3.96;100.00;98837.79;105356;1318;22256;-92
2022/11/14 04:00:43;;;;;;;32.50;27.90;;;;;;;3.95;100.00;98831.58;104948;1327;22843;-92
2022/11/14 04:03:30;;;;;;;30.40;27.50;;;;;;;3.96;100.00;98835.27;105008;1321;22063;-86
2022/11/14 04:06:16;;;;;;;36.70;29.70;;;;;;;3.98;100.00;98841.62;105254;1314;22226;-90
2022/11/14 04:09:03;;;;;;;45.50;31.00;;;;;;;3.98;100.00;98835.86;104891;1327;23023;-92
2022/11/14 04:11:49;;;;;;;39.50;28.10;;;;;;;3.99;100.00;98836.52;105285;1311;22196;-86
2022/11/14 04:14:36;;;;;;;32.50;28.80;;;;;;;3.96;100.00;98836.92;105315;1320;22182;-91
2022/11/14 04:17:22;;;;;;;30.10;27.20;;;;;;;3.98;100.00;98837.68;104910;1327;22718;-91
2022/11/14 04:20:10;;;;;;;35.20;29.00;;;;;;;3.99;100.00;98835.40;105171;1315;22922;-91
2022/11/14 04:22:56;;;;;;;34.40;29.50;;;;;;;4.01;100.00;98827.56;105344;1319;22106;-91
2022/11/14 04:25:45;;;;;;;38.00;29.30;;;;;;;4.03;100.00;98821.67;104915;1327;22910;-91
2022/11/14 04:28:31;;;;;;;33.40;30.10;;;;;;;4.04;100.00;98825.80;105121;1308;22040;-90
2022/11/14 04:31:18;;;;;;;32.50;27.50;;;;;;;4.03;100.00;98824.66;105333;1319;22095;-91
2022/11/14 04:34:05;;;;;;;30.10;27.20;;;;;;;3.99;100.00;98813.11;104917;1327;22903;-87
2022/11/14 04:36:51;;;;;;;29.40;25.10;;;;;;;4.02;100.00;98815.24;104937;1321;22217;-92
2022/11/14 04:39:37;;;;;;;27.00;24.40;;;;;;;4.03;100.00;98817.94;105248;1314;22067;-91
2022/11/14 04:42:24;;;;;;;25.50;22.40;;;;;;;4.03;100.00;98818.75;105307;1320;22241;-92
2022/11/14 04:45:11;;;;;;;25.40;22.90;;;;;;;4.02;100.00;98818.95;104887;1327;22783;-81
2022/11/14 04:47:57;;;;;;;45.70;24.50;;;;;;;4.04;100.00;98815.57;105068;1317;22913;-91
2022/11/14 04:50:45;;;;;;;38.50;24.60;;;;;;;4.03;100.00;98821.01;105311;1304;22089;-91
2022/11/14 04:53:31;;;;;;;33.60;26.50;;;;;;;4.06;100.00;98824.57;104783;1317;22267;-92
2022/11/14 04:56:17;;;;;;;33.30;24.40;;;;;;;4.08;100.00;98823.91;105337;1305;22216;-88
2022/11/14 04:59:03;;;;;;;26.00;23.40;;;;;;;4.07;100.00;98827.00;105354;1318;22242;-90
2022/11/14 05:01:50;;;;;;;35.30;24.60;;;;;;;4.05;100.00;98825.36;104901;1327;22213;-89
2022/11/14 05:04:36;;;;;;;30.10;25.30;;;;;;;4.05;100.00;98820.76;105327;1320;22105;-90
2022/11/14 05:07:23;;;;;;;36.60;27.00;;;;;;;4.09;100.00;98811.14;105182;1314;22189;-89
2022/11/14 05:10:10;;;;;;;67.20;23.50;;;;;;;4.09;100.00;98808.64;105125;1305;22178;-87
2022/11/14 05:12:56;;;;;;;29.70;21.20;;;;;;;4.04;100.00;98807.66;104850;1327;22223;-90
2022/11/14 05:15:43;;;;;;;23.90;19.60;;;;;;;3.99;100.00;98802.51;105479;1319;22234;-90
2022/11/14 05:18:29;;;;;;;29.20;21.70;;;;;;;3.96;100.00;98803.71;104936;1327;22131;-90
2022/11/14 05:21:16;;;;;;;21.90;19.90;;;;;;;3.97;100.00;98799.13;105187;1320;22142;-92
2022/11/14 05:24:03;;;;;;;32.00;21.20;;;;;;;3.99;100.00;98803.60;105124;1313;22248;-93
2022/11/14 05:26:49;;;;;;;32.90;21.60;;;;;;;4.02;100.00;98804.91;105422;1320;22127;-88
2022/11/14 05:29:36;;;;;;;29.20;22.10;;;;;;;4.05;100.00;98803.20;105386;1302;22206;-92
2022/11/14 05:32:22;;;;;;;34.40;22.40;;;;;;;4.09;100.00;98806.04;104964;1327;22925;-90
2022/11/14 05:35:08;;;;;;;37.60;24.00;;;;;;;4.12;100.00;98802.30;104898;1327;22260;-92
2022/11/14 05:37:54;;;;;;;31.20;21.60;;;;;;;4.10;100.00;98802.09;105340;1305;22183;-90
2022/11/14 05:40:45;;;;;;;34.90;20.60;;;;;;;4.09;100.00;98800.63;105296;1315;22261;-92
2022/11/14 05:43:32;;;;;;;37.50;25.40;;;;;;;4.09;100.00;98807.40;105406;1312;22055;-91
2022/11/14 05:46:18;;;;;;;36.90;21.50;;;;;;;4.09;100.00;98803.42;104936;1326;22262;-92
2022/11/14 05:49:05;;;;;;;38.80;20.50;;;;;;;4.11;100.00;98796.61;104967;1327;22235;-89
2022/11/14 05:51:51;;;;;;;67.60;21.90;;;;;;;4.12;100.00;98796.64;105019;1311;22105;-90
2022/11/14 05:54:37;;;;;;;31.70;20.80;;;;;;;4.09;100.00;98803.17;105026;1294;22376;-90
2022/11/14 05:57:30;;;;;;;20.30;18.00;;;;;;;4.07;100.00;98801.39;106412;1295;22432;-82
2022/11/14 06:00:17;;;;;;;23.20;17.60;;;;;;;4.05;100.00;98800.70;104975;1325;22253;-92
2022/11/14 06:03:03;;;;;;;22.00;17.20;;;;;;;4.02;100.00;98802.23;105145;1308;22083;-91
2022/11/14 06:05:50;;;;;;;33.00;17.20;;;;;;;4.01;100.00;98800.98;105302;1282;22176;-88
2022/11/14 06:08:37;;;;;;;34.40;18.80;;;;;;;4.00;100.00;98802.31;105061;1326;22114;-90
2022/11/14 06:11:23;;;;;;;40.20;20.70;;;;;;;4.02;100.00;98810.08;105459;1316;22861;-91
2022/11/14 06:14:09;;;;;;;54.60;26.50;;;;;;;4.04;100.00;98809.05;105624;1317;22164;-89
2022/11/14 06:16:56;;;;;;;41.20;26.20;;;;;;;4.02;100.00;98811.25;105597;1309;22158;-89
2022/11/14 06:19:42;;;;;;;38.90;25.70;;;;;;;4.09;100.00;98808.27;105094;1327;22146;-90
2022/11/14 06:22:29;;;;;;;28.00;23.30;;;;;;;4.17;100.00;98803.92;105234;1295;22106;-89
2022/11/14 06:25:15;;;;;;;29.50;21.70;;;;;;;4.24;100.00;98804.25;105439;1319;22213;-89
2022/11/14 06:28:02;;;;;;;33.50;21.80;;;;;;;4.29;100.00;98805.08;105587;1310;22843;-89
2022/11/14 06:30:48;;;;;;;30.20;19.90;;;;;;;4.29;100.00;98798.36;105495;1319;22185;-88
2022/11/14 06:33:35;;;;;;;24.00;18.40;;;;;;;4.24;100.00;98799.77;105109;1327;22259;-89
2022/11/14 06:36:22;;;;;;;35.60;20.50;;;;;;;4.16;100.00;98804.98;105070;1326;22114;-89
2022/11/14 06:39:09;;;;;;;23.70;20.40;;;;;;;4.12;100.00;98814.85;105480;1319;22211;-91
2022/11/14 06:41:55;;;;;;;22.80;20.50;;;;;;;4.12;100.00;98815.52;105501;1319;22203;-89
2022/11/14 06:44:41;;;;;;;27.70;19.30;;;;;;;4.16;100.00;98814.01;105045;1325;22153;-89
2022/11/14 06:47:28;;;;;;;27.50;23.20;;;;;;;4.16;100.00;98813.02;104957;1327;22261;-92
2022/11/14 06:50:14;;;;;;;37.30;27.50;;;;;;;4.17;100.00;98813.16;105056;1326;22190;-89
2022/11/14 06:53:01;;;;;;;36.80;21.90;;;;;;;4.22;100.00;98814.61;105063;1326;22265;-89
2022/11/14 06:56:01;;;;;;;33.00;22.80;;;;;;;4.26;100.00;98816.03;105064;1326;22903;-90
2022/11/14 06:58:48;;;;;;;33.30;23.00;;;;;;;4.29;100.00;98814.64;104957;1327;22227;-89
2022/11/14 07:01:34;;;;;;;28.80;22.40;;;;;;;4.29;100.00;98811.08;104910;1327;22281;-88
2022/11/14 07:04:21;;;;;;;30.00;23.10;;;;;;;4.33;100.00;98812.61;104920;1327;22311;-90
2022/11/14 07:07:07;;;;;;;39.00;23.30;;;;;;;4.33;100.00;98809.12;105501;1319;22102;-92
2022/11/14 07:09:55;;;;;;;38.00;25.50;;;;;;;4.34;100.00;98811.23;105027;1330;22795;-91
2022/11/14 07:12:41;;;;;;;40.40;25.80;;;;;;;4.35;100.00;98810.52;104827;1333;22203;-91
2022/11/14 07:15:28;;;;;;;34.00;23.20;;;;;;;4.37;100.00;98809.74;104943;1328;22165;-92
2022/11/14 07:18:14;;;;;;;42.10;25.40;;;;;;;4.40;100.00;98805.70;104930;1327;22126;-93
2022/11/14 07:21:04;;;;;;;37.10;26.90;;;;;;;4.45;100.00;98807.20;105207;1320;151046;-88
2022/11/14 07:23:50;;;;;;;28.00;24.30;;;;;;;4.55;100.00;98817.05;104782;1330;22238;-90
2022/11/14 07:26:37;;;;;;;37.70;26.00;;;;;;;4.63;100.00;98818.81;104934;1312;22109;-91
2022/11/14 07:29:23;;;;;;;49.40;26.70;;;;;;;4.66;100.00;98817.36;105138;1320;22081;-93
2022/11/14 07:32:09;;;;;;;35.40;24.90;;;;;;;4.62;100.00;98817.72;104942;1333;22201;-86
2022/11/14 07:34:56;;;;;;;31.00;22.80;;;;;;;4.60;100.00;98816.98;104808;1333;22269;-88
2022/11/14 07:37:48;;;;;;;35.70;27.60;;;;;;;4.58;100.00;98815.71;104824;1327;22162;-88
2022/11/14 07:40:35;;;;;;;27.80;24.80;;;;;;;4.62;100.00;98810.83;105272;1313;22235;-87
2022/11/14 07:43:23;;;;;;;28.80;24.20;;;;;;;4.66;100.00;98804.17;105064;1319;22153;-87
2022/11/14 07:46:12;;;;;;;35.30;23.90;;;;;;;4.66;100.00;98802.58;104934;1326;22553;-86
2022/11/14 07:48:59;;;;;;;63.90;24.10;;;;;;;4.60;100.00;98802.25;105471;1323;22200;-87
2022/11/14 07:51:45;;;;;;;29.10;21.30;;;;;;;4.53;100.00;98801.13;104944;1327;22869;-87
2022/11/14 07:54:31;;;;;;;25.40;21.00;;;;;;;4.50;100.00;98803.35;104995;1333;22161;-91
2022/11/14 07:57:17;;;;;;;22.00;19.60;;;;;;;4.51;100.00;98793.97;105279;1313;22092;-89
2022/11/14 08:00:04;;;;;;;25.20;20.30;;;;;;;4.54;100.00;98786.77;105095;1333;22235;-92
2022/11/14 08:02:50;;;;;;;23.80;18.90;;;;;;;4.55;100.00;98788.88;105188;1322;22184;-89
2022/11/14 08:05:37;;;;;;;23.50;21.10;;;;;;;4.56;100.00;98782.42;105012;1333;22186;-85
2022/11/14 08:08:23;;;;;;;26.10;20.90;;;;;;;4.54;100.00;98774.27;105054;1327;22202;-91
2022/11/14 08:11:10;;;;;;;26.50;23.70;;;;;;;4.55;100.00;98778.52;104896;1333;22189;-91
2022/11/14 08:13:57;;;;;;;27.60;24.60;;;;;;;4.60;100.00;98781.00;104926;1328;22790;-91
2022/11/14 08:16:44;;;;;;;26.10;21.70;;;;;;;4.65;100.00;98774.31;104987;1326;22148;-89
2022/11/14 08:19:30;;;;;;;25.10;22.70;;;;;;;4.69;100.00;98767.39;105365;1312;22206;-89
2022/11/14 08:22:17;;;;;;;24.00;21.70;;;;;;;4.75;100.00;98770.23;105361;1318;23041;-88
2022/11/14 08:25:04;;;;;;;22.70;20.60;;;;;;;4.84;100.00;98766.97;104930;1314;22236;-90
2022/11/14 08:27:52;;;;;;;26.80;22.80;;;;;;;4.85;100.00;98755.86;104923;1326;22206;-89
2022/11/14 08:30:38;;;;;;;28.20;23.50;;;;;;;4.86;100.00;98747.52;104887;1332;22190;-86
2022/11/14 08:33:25;;;;;;;26.00;21.80;;;;;;;4.87;100.00;98747.42;105333;1315;22888;-90
2022/11/14 08:36:11;;;;;;;24.50;21.60;;;;;;;4.90;100.00;98744.97;104913;1327;22235;-90
2022/11/14 08:38:58;;;;;;;25.70;23.30;;;;;;;4.94;100.00;98741.89;105275;1311;22087;-89
2022/11/14 08:41:47;;;;;;;26.00;23.70;;;;;;;4.97;100.00;98738.41;104911;1332;22187;-85
2022/11/14 08:44:34;;;;;;;24.50;22.40;;;;;;;5.02;100.00;98746.02;105350;1318;22906;-86
2022/11/14 08:47:20;;;;;;;30.90;27.60;;;;;;;5.07;100.00;98745.52;105332;1315;22911;-88
2022/11/14 08:50:07;;;;;;;35.00;31.90;;;;;;;5.10;100.00;98747.34;105351;1321;22112;-90
2022/11/14 08:52:53;;;;;;;29.50;26.50;;;;;;;5.15;100.00;98739.90;104983;1326;22262;-87
2022/11/14 08:55:47;;;;;;;27.70;25.20;;;;;;;5.19;100.00;98740.85;104976;1327;22209;-86
2022/11/14 08:58:33;;;;;;;28.80;26.10;;;;;;;5.33;100.00;98743.05;105169;1311;22952;-89
2022/11/14 09:01:19;;;;;;;26.50;23.80;;;;;;;5.43;100.00;98744.06;105321;1319;22782;-87
2022/11/14 09:04:06;;;;;;;27.90;25.20;;;;;;;5.50;100.00;98740.78;104935;1327;22082;-85
2022/11/14 09:06:52;;;;;;;28.40;25.50;;;;;;;5.59;100.00;98744.29;104923;1326;22124;-89
2022/11/14 09:09:39;;;;;;;27.90;25.20;;;;;;;5.65;100.00;98753.42;104855;1327;22206;-87
2022/11/14 09:12:25;;;;;;;26.60;24.20;;;;;;;5.66;100.00;98755.36;104932;1327;22082;-88
2022/11/14 09:15:12;;;;;;;28.10;25.20;;;;;;;5.67;100.00;98752.92;105361;1320;22789;-89
2022/11/14 09:17:58;;;;;;;26.00;23.60;;;;;;;5.73;100.00;98749.85;104911;1327;22127;-88
2022/11/14 09:20:44;;;;;;;27.50;24.70;;;;;;;5.77;100.00;98750.33;105156;1313;22187;-87
2022/11/14 09:23:32;;;;;;;25.90;23.20;;;;;;;5.81;100.00;98749.27;104860;1327;22360;-89
2022/11/14 09:26:19;;;;;;;26.90;24.30;;;;;;;5.81;100.00;98745.04;104829;1327;22152;-88
2022/11/14 09:29:05;;;;;;;29.50;26.70;;;;;;;5.78;100.00;98749.23;105228;1320;22196;-87
2022/11/14 09:31:53;;;;;;;37.20;26.00;;;;;;;5.77;100.00;98744.44;104888;1326;22137;-88
2022/11/14 09:34:43;;;;;;;28.80;26.10;;;;;;;5.76;100.00;98740.36;104910;1326;22244;-90
2022/11/14 09:37:30;;;;;;;29.20;26.40;;;;;;;5.80;100.00;98743.27;104742;1317;22187;-88
2022/11/14 09:40:16;;;;;;;30.00;27.30;;;;;;;5.83;100.00;98738.42;105320;1319;22209;-88
2022/11/14 09:43:16;;;;;;;32.50;29.20;;;;;;;5.90;100.00;98727.71;104928;1326;22195;-87
2022/11/14 09:46:16;;;;;;;29.10;26.00;;;;;;;5.94;100.00;98727.68;104853;1327;22886;-86
2022/11/14 09:49:02;;;;;;;31.30;28.10;;;;;;;5.91;100.00;98727.73;104852;1327;22085;-86
2022/11/14 09:51:58;;;;;;;31.00;28.10;;;;;;;5.88;100.00;98731.13;104875;1327;22110;-85
2022/11/14 09:54:52;;;;;;;28.50;25.70;;;;;;;5.92;100.00;98729.02;105307;1311;22201;-87
2022/11/14 09:57:42;;;;;;;28.30;25.80;;;;;;;5.94;100.00;98725.31;105276;1315;22192;-88
2022/11/14 10:00:43;;;;;;;29.00;26.40;;;;;;;5.96;100.00;98725.20;104889;1327;22088;-87
2022/11/14 10:03:53;;;;;;;30.50;27.60;;;;;;;5.99;100.00;98717.16;105229;1304;22198;-88
2022/11/14 10:06:55;;;;;;;28.40;25.70;;;;;;;6.02;100.00;98719.39;104923;1326;22193;-86
2022/11/14 10:09:57;;;;;;;28.80;26.10;;;;;;;6.01;100.00;98714.89;104899;1320;22352;-89
2022/11/14 10:13:19;;;;;;;28.50;25.90;;;;;;;6.07;100.00;98715.33;105334;1318;22164;-90
2022/11/14 10:16:14;;;;;;;31.20;28.20;;;;;;;6.19;100.00;98711.13;104912;1326;22179;-87
2022/11/14 10:19:16;;;;;;;;;;;;;;;6.29;100.00;98702.46;104936;1327;22255;-89
2022/11/14 10:22:05;;;;;;;27.40;24.90;;;;;;;6.32;100.00;98695.52;105263;1319;23042;-87
2022/11/14 10:25:01;;;;;;;30.20;27.40;;;;;;;6.32;100.00;98683.63;105348;1319;22251;-91
2022/11/14 10:27:57;;;;;;;24.80;22.60;;;;;;;6.28;100.00;98683.73;104937;1320;22060;-90
2022/11/14 10:31:03;;;;;;;27.30;24.60;;;;;;;6.22;100.00;98677.56;105403;1320;22234;-86
2022/11/14 10:33:56;;;;;;;28.40;25.80;;;;;;;6.20;100.00;98670.38;105426;1297;22684;-87
2022/11/14 10:36:48;;;;;;;29.30;26.60;;;;;;;6.23;100.00;98671.04;105351;1320;22143;-89
2022/11/14 10:40:16;;;;;;;27.50;25.00;;;;;;;6.23;100.00;98667.98;105332;1315;22263;-86
2022/11/14 10:43:19;;;;;;;26.50;24.00;;;;;;;6.13;100.00;98662.59;104485;1333;22899;-89
2022/11/14 10:46:21;;;;;;;23.80;21.60;;;;;;;6.08;100.00;98656.38;104475;1333;22124;-90
2022/11/14 10:49:22;;;;;;;24.40;22.10;;;;;;;6.05;100.00;98649.74;104754;1326;22165;-82
2022/11/14 10:52:15;;;;;;;24.90;22.70;;;;;;;6.02;100.00;98648.96;104493;1333;22136;-88
2022/11/14 10:55:18;;;;;;;27.40;24.90;;;;;;;6.00;100.00;98654.58;104402;1333;22235;-87
2022/11/14 10:58:11;;;;;;;;;;;;;;;6.00;100.00;98653.55;104491;1333;22428;-89
2022/11/14 11:01:31;;;;;;;32.40;27.10;;;;;;;6.01;100.00;98648.42;104467;1333;22311;-87
2022/11/14 11:04:21;;;;;;;27.90;25.40;;;;;;;6.04;100.00;98646.05;104486;1333;22204;-88
2022/11/14 11:07:07;;;;;;;26.00;23.70;;;;;;;6.11;100.00;98638.38;104762;1318;22986;-85
2022/11/14 11:13:04;;;;;;;26.10;23.60;;;;;;;6.16;100.00;98633.77;104433;1333;22313;-89
2022/11/14 11:15:56;;;;;;;24.30;22.20;;;;;;;6.21;100.00;98630.13;104730;1326;23154;-87
2022/11/14 11:18:42;;;;;;;26.70;22.90;;;;;;;6.14;100.00;98628.35;104601;1326;22261;-88
2022/11/14 11:21:47;;;;;;;25.90;23.60;;;;;;;6.16;100.00;98635.64;105244;1320;22240;-88
2022/11/14 11:24:36;;;;;;;22.60;20.50;;;;;;;6.12;100.00;98626.34;105353;1320;22161;-89
2022/11/14 11:27:28;;;;;;;22.60;20.40;;;;;;;6.08;100.00;98627.02;105226;1312;22719;-87
2022/11/14 11:30:22;;;;;;;23.80;21.80;;;;;;;6.11;100.00;98621.62;105238;1315;23043;-84
2022/11/14 11:33:20;;;;;;;24.80;22.30;;;;;;;6.17;100.00;98621.04;104885;1327;22118;-85
2022/11/14 11:36:18;;;;;;;23.90;21.70;;;;;;;6.19;100.00;98618.38;105313;1319;22063;-84
2022/11/14 11:39:05;;;;;;;25.70;23.30;;;;;;;6.17;100.00;98620.39;105125;1320;22200;-83
2022/11/14 11:41:54;;;;;;;27.80;24.90;;;;;;;6.18;100.00;98616.43;104910;1327;22252;-85
2022/11/14 11:45:00;;;;;;;29.00;26.40;;;;;;;6.18;100.00;98608.26;104869;1327;22275;-84
2022/11/14 11:47:56;;;;;;;28.60;26.20;;;;;;;6.13;100.00;98602.82;105142;1320;22231;-89
2022/11/14 11:50:42;;;;;;;29.50;26.90;;;;;;;6.11;100.00;98599.36;104835;1327;22241;-87
2022/11/14 11:53:38;;;;;;;28.50;26.00;;;;;;;6.18;100.00;98593.16;104885;1326;22188;-89
2022/11/14 11:56:29;;;;;;;26.10;23.50;;;;;;;6.23;100.00;98591.98;104941;1326;22234;-87
2022/11/14 11:59:45;;;;;;;29.50;27.00;;;;;;;6.30;100.00;98595.22;105172;1311;22087;-87
2022/11/14 12:02:35;;;;;;;24.60;22.40;;;;;;;6.34;100.00;98598.89;104971;1326;23044;-86
2022/11/14 12:05:36;;;;;;;28.50;26.00;;;;;;;6.33;100.00;98596.05;105261;1311;22834;-88
2022/11/14 12:08:29;;;;;;;28.80;25.70;;;;;;;6.34;100.00;98593.59;104928;1327;22379;-87
2022/11/14 12:11:19;;;;;;;25.80;23.20;;;;;;;6.39;100.00;98587.31;104925;1327;22224;-86
2022/11/14 12:14:22;;;;;;;35.20;32.20;;;;;;;6.40;100.00;98585.39;104951;1327;22276;-86
2022/11/14 12:17:11;;;;;;;25.80;23.30;;;;;;;6.36;100.00;98584.45;104916;1325;22130;-86
2022/11/14 12:20:19;;;;;;;28.40;25.80;;;;;;;6.35;100.00;98583.58;104954;1327;22163;-83
2022/11/14 12:23:22;;;;;;;28.20;25.70;;;;;;;6.36;100.00;98576.63;104865;1327;22905;-87
2022/11/14 12:26:37;;;;;;;27.60;24.80;;;;;;;6.29;100.00;98569.40;104941;1327;22796;-89
2022/11/14 12:29:45;;;;;;;28.50;24.50;;;;;;;6.23;100.00;98559.88;105345;1319;22266;-87
2022/11/14 12:32:59;;;;;;;23.40;21.40;;;;;;;6.14;100.00;98556.52;105319;1319;22742;-88
2022/11/14 12:35:53;;;;;;;24.30;22.10;;;;;;;6.09;100.00;98554.34;105383;1319;22186;-88
2022/11/14 12:38:49;;;;;;;27.50;24.80;;;;;;;6.01;100.00;98552.65;104865;1320;22159;-87
2022/11/14 12:41:37;;;;;;;25.60;23.40;;;;;;;5.96;100.00;98545.33;104934;1327;22813;-87
2022/11/14 12:44:27;;;;;;;28.30;25.70;;;;;;;6.00;100.00;98539.80;104931;1324;22182;-89
2022/11/14 12:47:19;;;;;;;24.30;22.20;;;;;;;6.04;100.00;98529.58;105324;1315;22824;-88
2022/11/14 12:50:27;;;;;;;28.30;25.50;;;;;;;6.03;100.00;98534.12;105314;1314;22864;-85
2022/11/14 12:53:35;;;;;;;27.30;24.80;;;;;;;6.01;100.00;98532.28;104818;1327;22200;-86
2022/11/14 12:56:30;;;;;;;27.90;25.40;;;;;;;6.08;100.00;98530.09;104928;1324;22206;-88